Time;durP1;ratioP1;P1;durP2;ratioP2;P2;SDS_P1;SDS_P2;PMS_P1;PMS_P2;Temp;Humidity;BMP_temperature;BMP_pressure;BME280_temperature;BME280_humidity;BME280_pressure;Samples;Min_cycle;Max_cycle;Signal;HPM_P1;HPM_P2
2022/12/03 00:00:52;;;;;;;13.03;8.57;;;;;;;0.21;100.00;98119.06;6290122;28;20242;-42
2022/12/03 00:03:54;;;;;;;13.50;9.27;;;;;;;0.20;100.00;98113.03;6288521;28;20716;-42
2022/12/03 00:06:57;;;;;;;13.60;8.93;;;;;;;0.21;100.00;98108.69;6289923;28;20226;-42
2022/12/03 00:09:59;;;;;;;12.00;8.10;;;;;;;0.23;100.00;98114.69;6289757;28;20238;-43
2022/12/03 00:13:01;;;;;;;11.87;8.13;;;;;;;0.25;100.00;98113.75;6291709;28;20225;-43
2022/12/03 00:16:03;;;;;;;13.17;8.33;;;;;;;0.27;100.00;98111.09;6284929;28;20355;-43
2022/12/03 00:19:06;;;;;;;10.43;7.17;;;;;;;0.27;100.00;98114.56;6288973;28;20222;-43
2022/12/03 00:22:08;;;;;;;11.67;8.60;;;;;;;0.26;100.00;98114.59;6290849;28;20238;-42
2022/12/03 00:25:14;;;;;;;12.03;8.30;;;;;;;0.23;100.00;98112.09;6287661;28;20233;-43
2022/12/03 00:28:16;;;;;;;13.50;8.67;;;;;;;0.23;100.00;98106.91;6273940;28;20262;-43
2022/12/03 00:31:20;;;;;;;13.43;8.93;;;;;;;0.22;100.00;98107.78;6291225;28;20229;-43
2022/12/03 00:34:22;;;;;;;11.20;8.13;;;;;;;0.23;100.00;98110.34;6285067;28;20226;-42
2022/12/03 00:37:24;;;;;;;10.20;7.80;;;;;;;0.26;100.00;98119.78;6291316;28;20241;-43
2022/12/03 00:40:27;;;;;;;11.80;8.20;;;;;;;0.26;100.00;98112.84;6285876;28;20229;-43
2022/12/03 00:43:29;;;;;;;11.40;7.97;;;;;;;0.25;100.00;98118.94;6276149;28;20236;-43
2022/12/03 00:46:31;;;;;;;12.83;8.20;;;;;;;0.24;100.00;98118.97;6293168;28;20240;-42
2022/12/03 00:49:33;;;;;;;11.93;9.07;;;;;;;0.23;100.00;98117.28;6289165;28;20264;-43
2022/12/03 00:52:35;;;;;;;12.77;8.53;;;;;;;0.22;100.00;98124.22;6290493;28;20733;-42
2022/12/03 00:55:37;;;;;;;13.07;8.73;;;;;;;0.22;100.00;98123.38;6290195;28;20279;-42
2022/12/03 00:58:39;;;;;;;12.23;8.77;;;;;;;0.21;100.00;98124.25;6273472;28;20237;-42
2022/12/03 01:01:41;;;;;;;11.87;8.27;;;;;;;0.20;100.00;98123.41;6292041;28;20316;-42
2022/12/03 01:04:43;;;;;;;12.27;8.00;;;;;;;0.22;100.00;98124.22;6294765;28;20225;-42
2022/12/03 01:07:46;;;;;;;12.07;8.47;;;;;;;0.21;100.00;98124.25;6294669;28;20675;-42
2022/12/03 01:10:48;;;;;;;11.83;8.07;;;;;;;0.22;100.00;98128.56;6294251;28;20222;-42
2022/12/03 01:13:50;;;;;;;10.57;7.40;;;;;;;0.25;100.00;98124.13;6294348;28;20230;-43
2022/12/03 01:16:52;;;;;;;13.07;8.63;;;;;;;0.24;100.00;98117.22;6290915;28;20234;-43
2022/12/03 01:19:54;;;;;;;14.63;9.83;;;;;;;0.25;100.00;98136.25;6285435;28;20240;-43
2022/12/03 01:22:56;;;;;;;11.17;8.13;;;;;;;0.26;100.00;98127.56;6293016;28;20233;-42
2022/12/03 01:25:59;;;;;;;11.60;7.70;;;;;;;0.25;100.00;98123.28;6292958;28;20233;-42
2022/12/03 01:29:01;;;;;;;13.13;8.17;;;;;;;0.25;100.00;98126.72;6296169;28;20267;-42
2022/12/03 01:32:15;;;;;;;13.90;8.63;;;;;;;0.22;100.00;98132.00;6293861;28;20580;-42
2022/12/03 01:35:17;;;;;;;14.07;9.53;;;;;;;0.22;100.00;98121.63;6292387;28;20317;-43
2022/12/03 01:38:19;;;;;;;12.70;8.43;;;;;;;0.21;100.00;98127.69;6289439;28;20329;-43
2022/12/03 01:41:23;;;;;;;14.37;9.37;;;;;;;0.19;100.00;98126.94;6291500;28;20595;-42
2022/12/03 01:44:30;;;;;;;12.17;9.00;;;;;;;0.21;100.00;98124.25;6292512;28;20234;-43
2022/12/03 01:47:35;;;;;;;11.97;8.40;;;;;;;0.23;100.00;98117.28;6292594;28;20597;-44
2022/12/03 01:50:37;;;;;;;11.67;8.33;;;;;;;0.25;100.00;98118.09;6294610;28;20244;-43
2022/12/03 01:53:40;;;;;;;13.53;8.50;;;;;;;0.23;100.00;98112.94;6290390;28;20230;-42
2022/12/03 01:56:43;;;;;;;16.10;9.37;;;;;;;0.22;100.00;98113.84;6291923;28;20639;-42
2022/12/03 01:59:46;;;;;;;14.50;9.47;;;;;;;0.20;100.00;98126.00;6295414;28;20242;-42
2022/12/03 02:02:52;;;;;;;13.73;8.70;;;;;;;0.19;100.00;98113.97;6291404;28;20702;-42
2022/12/03 02:05:55;;;;;;;13.10;8.57;;;;;;;0.17;100.00;98118.34;6293139;28;20725;-43
2022/12/03 02:08:59;;;;;;;13.63;9.40;;;;;;;0.15;100.00;98116.69;6290933;28;20267;-43
2022/12/03 02:12:01;;;;;;;13.40;9.57;;;;;;;0.15;100.00;98109.75;6294256;28;20237;-42
2022/12/03 02:15:05;;;;;;;12.17;9.13;;;;;;;0.18;100.00;98119.19;6292134;28;20214;-42
2022/12/03 02:18:08;;;;;;;10.73;7.60;;;;;;;0.20;100.00;98120.81;6293050;28;20314;-42
2022/12/03 02:21:30;;;;;;;13.87;8.67;;;;;;;0.20;100.00;98123.41;6291682;28;20242;-42
2022/12/03 02:24:51;;;;;;;12.63;8.40;;;;;;;0.22;100.00;98116.44;6291503;28;20267;-42
2022/12/03 02:27:54;;;;;;;13.63;9.57;;;;;;;0.23;100.00;98120.72;6290307;28;20722;-42
2022/12/03 02:30:57;;;;;;;13.23;8.60;;;;;;;0.23;100.00;98114.69;6287479;28;20728;-42
2022/12/03 02:34:03;;;;;;;14.17;8.73;;;;;;;0.20;100.00;98110.44;6286847;28;20262;-42
2022/12/03 02:37:09;;;;;;;12.80;7.93;;;;;;;0.21;100.00;98112.13;6288687;28;20265;-42
2022/12/03 02:40:16;;;;;;;12.50;8.73;;;;;;;0.22;100.00;98118.16;6291394;28;20237;-42
2022/12/03 02:43:19;;;;;;;13.03;8.20;;;;;;;0.21;100.00;98117.31;6284975;28;20628;-42
2022/12/03 02:46:21;;;;;;;12.07;8.47;;;;;;;0.21;100.00;98106.09;6288826;28;20234;-43
2022/12/03 02:49:23;;;;;;;14.30;8.77;;;;;;;0.18;100.00;98107.06;6293396;28;20248;-42
2022/12/03 02:52:26;;;;;;;14.97;10.03;;;;;;;0.17;100.00;98112.31;6289596;28;20641;-42
2022/12/03 02:55:30;;;;;;;12.13;8.53;;;;;;;0.17;100.00;98110.56;6291602;28;20245;-42
2022/12/03 02:58:39;;;;;;;12.43;9.03;;;;;;;0.18;100.00;98104.47;6291150;28;20317;-42
2022/12/03 03:01:41;;;;;;;12.53;8.87;;;;;;;0.20;100.00;98115.63;6292136;28;20359;-42
2022/12/03 03:04:44;;;;;;;10.37;7.67;;;;;;;0.21;100.00;98100.91;6289991;28;20230;-42
2022/12/03 03:07:47;;;;;;;12.00;8.47;;;;;;;0.23;100.00;98089.59;6292506;28;20313;-42
2022/12/03 03:10:49;;;;;;;9.87;7.17;;;;;;;0.22;100.00;98103.44;6291137;28;20243;-42
2022/12/03 03:13:51;;;;;;;12.87;9.23;;;;;;;0.21;100.00;98093.13;6292205;28;20263;-42
2022/12/03 03:16:54;;;;;;;11.40;8.07;;;;;;;0.23;100.00;98093.91;6287250;28;20391;-43
2022/12/03 03:19:57;;;;;;;13.07;8.73;;;;;;;0.24;100.00;98091.28;6296878;28;20608;-42
2022/12/03 03:23:22;;;;;;;12.00;8.27;;;;;;;0.27;100.00;98095.53;6286376;28;20233;-43
2022/12/03 03:26:24;;;;;;;13.40;8.83;;;;;;;0.26;100.00;98092.09;6265674;28;20312;-43
2022/12/03 03:29:27;;;;;;;13.57;8.70;;;;;;;0.25;100.00;98092.97;6290820;28;20236;-42
2022/12/03 03:32:29;;;;;;;10.80;8.03;;;;;;;0.26;100.00;98096.44;6291425;28;20234;-42
2022/12/03 03:35:31;;;;;;;10.93;7.83;;;;;;;0.28;100.00;98105.88;6290140;28;20316;-42
2022/12/03 03:38:35;;;;;;;12.67;8.37;;;;;;;0.27;100.00;98106.75;6290727;28;20238;-43
2022/12/03 03:41:40;;;;;;;13.30;8.67;;;;;;;0.31;100.00;98107.50;6290846;28;20716;-42
2022/12/03 03:44:43;;;;;;;13.97;8.13;;;;;;;0.31;100.00;98104.91;6283608;28;20280;-43
2022/12/03 03:47:45;;;;;;;11.77;8.00;;;;;;;0.29;100.00;98115.34;6288692;28;20287;-43
2022/12/03 03:50:49;;;;;;;12.47;8.70;;;;;;;0.30;100.00;98118.81;6287474;28;20316;-43
2022/12/03 03:53:52;;;;;;;12.57;8.73;;;;;;;0.28;100.00;98120.59;6288559;28;20234;-42
2022/12/03 03:56:54;;;;;;;13.10;8.33;;;;;;;0.30;100.00;98118.81;6290285;28;20286;-42
2022/12/03 03:59:57;;;;;;;11.17;7.83;;;;;;;0.32;100.00;98122.16;6292246;28;20257;-43
2022/12/03 04:03:00;;;;;;;11.13;7.73;;;;;;;0.31;100.00;98113.53;6290325;28;20240;-43
2022/12/03 04:06:02;;;;;;;12.07;7.97;;;;;;;0.32;100.00;98119.56;6289134;28;20743;-43
2022/12/03 04:09:04;;;;;;;13.67;8.70;;;;;;;0.31;100.00;98110.09;6290790;28;20735;-42
2022/12/03 04:15:27;;;;;;;15.03;8.60;;;;;;;0.27;100.00;98101.56;6291811;28;20222;-42
2022/12/03 04:18:44;;;;;;;11.80;8.57;;;;;;;0.27;100.00;98085.16;6295127;28;20225;-42
2022/12/03 04:28:47;;;;;;;13.23;9.00;;;;;;;0.33;100.00;98113.50;6284252;28;20461;-42
2022/12/03 04:38:31;;;;;;;12.50;8.37;;;;;;;0.35;100.00;98104.75;6294944;28;20310;-42
2022/12/03 04:41:33;;;;;;;12.23;8.50;;;;;;;0.38;100.00;98103.81;6291185;28;20222;-43
2022/12/03 04:44:35;;;;;;;12.47;7.50;;;;;;;0.41;100.00;98098.50;6295573;28;20585;-42
2022/12/03 04:47:37;;;;;;;12.50;8.20;;;;;;;0.44;100.00;98095.81;6273379;28;20328;-42
2022/12/03 04:50:41;;;;;;;12.07;8.63;;;;;;;0.42;100.00;98095.00;6294771;28;20244;-42
2022/12/03 04:53:43;;;;;;;11.70;7.50;;;;;;;0.42;100.00;98087.22;6289748;28;20254;-43
2022/12/03 04:56:47;;;;;;;11.37;8.07;;;;;;;0.43;100.00;98096.72;6295491;28;20230;-43
2022/12/03 04:59:49;;;;;;;10.70;7.40;;;;;;;0.43;100.00;98093.25;6299822;28;20282;-42
2022/12/03 05:02:51;;;;;;;11.43;7.93;;;;;;;0.43;100.00;98096.72;6293811;28;20673;-43
2022/12/03 05:05:53;;;;;;;12.80;8.70;;;;;;;0.44;100.00;98079.38;6293599;28;20233;-43
2022/12/03 05:08:55;;;;;;;14.23;9.47;;;;;;;0.43;100.00;98078.53;6296496;28;20222;-42
2022/12/03 05:11:57;;;;;;;13.70;8.47;;;;;;;0.40;100.00;98076.03;6290312;28;20226;-43
2022/12/03 05:15:00;;;;;;;11.27;7.33;;;;;;;0.38;100.00;98074.41;6289473;28;20225;-42
2022/12/03 05:18:02;;;;;;;11.93;7.73;;;;;;;0.38;100.00;98077.88;6291564;28;20218;-42
2022/12/03 05:21:05;;;;;;;14.43;9.63;;;;;;;0.39;100.00;98076.13;6296263;28;20214;-42
2022/12/03 05:24:07;;;;;;;12.13;8.40;;;;;;;0.39;100.00;98076.97;6293405;28;20581;-42
2022/12/03 05:27:09;;;;;;;11.60;7.70;;;;;;;0.36;100.00;98085.69;6291629;28;20218;-42
2022/12/03 05:30:11;;;;;;;13.43;8.53;;;;;;;0.36;100.00;98085.69;6295461;28;20252;-42
2022/12/03 05:33:13;;;;;;;13.30;8.30;;;;;;;0.39;100.00;98081.31;6293491;28;20238;-43
2022/12/03 05:36:15;;;;;;;15.03;9.60;;;;;;;0.37;100.00;98081.34;6292787;28;20710;-43
2022/12/03 05:39:17;;;;;;;14.27;8.80;;;;;;;0.37;100.00;98089.13;6294089;28;20265;-42
2022/12/03 05:45:41;;;;;;;15.50;9.40;;;;;;;0.40;100.00;98094.22;6267622;28;20242;-43
2022/12/03 05:48:43;;;;;;;10.80;7.83;;;;;;;0.41;100.00;98098.50;6294619;28;20461;-43
2022/12/03 05:51:46;;;;;;;14.40;8.33;;;;;;;0.42;100.00;98107.16;6293295;28;20601;-43
2022/12/03 05:54:48;;;;;;;14.63;8.77;;;;;;;0.42;100.00;98105.41;6294517;28;20646;-43
2022/12/03 05:57:50;;;;;;;14.80;8.90;;;;;;;0.45;100.00;98105.31;6292611;28;20321;-43
2022/12/03 06:00:52;;;;;;;11.73;8.10;;;;;;;0.46;100.00;98101.81;6293427;28;20372;-43
2022/12/03 06:03:54;;;;;;;11.20;8.07;;;;;;;0.46;100.00;98109.59;6292540;28;20312;-44
2022/12/03 06:06:56;;;;;;;14.13;9.43;;;;;;;0.45;100.00;98113.09;6291591;28;20725;-42
2022/12/03 06:09:58;;;;;;;13.67;8.73;;;;;;;0.42;100.00;98120.13;6293161;28;20368;-42
2022/12/03 06:13:02;;;;;;;14.70;8.57;;;;;;;0.44;100.00;98123.53;6291765;28;20691;-42
2022/12/03 06:16:04;;;;;;;14.53;8.93;;;;;;;0.42;100.00;98127.91;6289831;28;20785;-43
2022/12/03 06:19:06;;;;;;;12.13;8.20;;;;;;;0.41;100.00;98119.28;6292017;28;20320;-42
2022/12/03 06:22:08;;;;;;;12.43;8.37;;;;;;;0.44;100.00;98116.59;6293716;28;20632;-43
2022/12/03 06:25:12;;;;;;;13.80;8.53;;;;;;;0.45;100.00;98114.84;6273892;28;20390;-43
2022/12/03 06:28:14;;;;;;;12.70;8.30;;;;;;;0.46;100.00;98114.78;6292517;28;20237;-42
2022/12/03 06:31:16;;;;;;;13.30;8.33;;;;;;;0.47;100.00;98124.28;6274295;28;20234;-42
2022/12/03 06:34:18;;;;;;;15.30;8.27;;;;;;;0.49;100.00;98119.03;6292768;28;20230;-43
2022/12/03 06:37:20;;;;;;;11.90;7.93;;;;;;;0.50;100.00;98123.34;6291930;28;20242;-42
2022/12/03 06:40:23;;;;;;;14.93;9.53;;;;;;;0.51;100.00;98125.00;6289585;28;20322;-42
2022/12/03 06:43:26;;;;;;;14.37;8.30;;;;;;;0.52;100.00;98121.53;6291562;28;20238;-42
2022/12/03 06:46:29;;;;;;;15.53;9.60;;;;;;;0.56;100.00;98126.56;6289045;28;20284;-42
2022/12/03 06:49:31;;;;;;;14.60;8.30;;;;;;;0.58;100.00;98121.34;6274500;28;20276;-42
2022/12/03 06:52:33;;;;;;;14.97;8.83;;;;;;;0.60;100.00;98125.56;6291384;28;20710;-43
2022/12/03 06:55:35;;;;;;;16.30;10.03;;;;;;;0.61;100.00;98123.81;6286327;28;20225;-43
2022/12/03 06:58:37;;;;;;;14.70;8.97;;;;;;;0.63;100.00;98135.00;6284864;28;20231;-42
2022/12/03 07:01:40;;;;;;;16.80;9.70;;;;;;;0.64;100.00;98129.75;6294109;28;20226;-42
2022/12/03 07:04:42;;;;;;;15.30;10.03;;;;;;;0.67;100.00;98126.22;6290278;28;20713;-42
2022/12/03 07:07:50;;;;;;;14.37;8.70;;;;;;;0.69;100.00;98125.28;6294163;28;20371;-42
2022/12/03 07:10:53;;;;;;;14.10;8.30;;;;;;;0.72;100.00;98129.50;6289478;28;20238;-42
2022/12/03 07:13:59;;;;;;;13.83;9.10;;;;;;;0.73;100.00;98134.63;6292028;28;20233;-42
2022/12/03 07:17:06;;;;;;;13.03;8.87;;;;;;;0.74;100.00;98135.50;6290080;28;20233;-42
2022/12/03 07:20:09;;;;;;;16.23;9.50;;;;;;;0.74;100.00;98131.16;6290169;28;20609;-42
2022/12/03 07:23:11;;;;;;;13.57;8.20;;;;;;;0.80;100.00;98127.47;6293069;28;20227;-42
2022/12/03 07:26:13;;;;;;;15.03;8.53;;;;;;;0.83;100.00;98124.78;6291835;28;20232;-42
2022/12/03 07:29:15;;;;;;;13.63;8.03;;;;;;;0.87;100.00;98120.34;6291618;28;20244;-42
2022/12/03 07:32:17;;;;;;;15.43;8.53;;;;;;;0.91;100.00;98120.16;6286586;28;20260;-42
2022/12/03 07:35:20;;;;;;;14.27;8.10;;;;;;;0.92;100.00;98116.66;6292528;28;20229;-42
2022/12/03 07:38:24;;;;;;;13.83;9.03;;;;;;;0.96;100.00;98114.81;6286734;28;20242;-42
2022/12/03 07:41:26;;;;;;;11.47;7.43;;;;;;;1.00;100.00;98121.59;6290823;28;20720;-42
2022/12/03 07:44:30;;;;;;;15.17;8.97;;;;;;;1.03;100.00;98118.91;6267692;28;20231;-42
2022/12/03 07:47:32;;;;;;;14.40;9.13;;;;;;;1.03;100.00;98122.34;6287960;28;20276;-42
2022/12/03 07:50:35;;;;;;;14.97;8.87;;;;;;;1.03;100.00;98117.16;6290375;28;20227;-42
2022/12/03 07:53:37;;;;;;;12.93;8.73;;;;;;;1.05;100.00;98120.53;6290241;28;20330;-42
2022/12/03 07:56:39;;;;;;;15.83;9.80;;;;;;;1.06;100.00;98118.78;6290294;28;20597;-42
2022/12/03 07:59:41;;;;;;;12.17;8.57;;;;;;;1.07;100.00;98115.31;6288039;28;20238;-42
2022/12/03 08:02:43;;;;;;;16.87;9.87;;;;;;;1.06;100.00;98119.66;6291586;28;20241;-42
2022/12/03 08:05:45;;;;;;;16.13;10.67;;;;;;;1.09;100.00;98118.69;6289628;28;20244;-42
2022/12/03 08:08:47;;;;;;;19.50;10.60;;;;;;;1.11;100.00;98122.06;6292630;28;20235;-42
2022/12/03 08:11:50;;;;;;;19.37;10.80;;;;;;;1.12;100.00;98123.75;6288548;28;20718;-42
2022/12/03 08:14:52;;;;;;;19.93;10.60;;;;;;;1.14;100.00;98126.31;6273122;28;20230;-42
2022/12/03 08:17:59;;;;;;;19.57;11.33;;;;;;;1.13;100.00;98129.81;6284592;28;20227;-42
2022/12/03 08:21:08;;;;;;;17.90;11.87;;;;;;;1.13;100.00;98130.66;6289036;28;20713;-42
2022/12/03 08:24:15;;;;;;;20.13;11.00;;;;;;;1.17;100.00;98136.63;6288042;28;20207;-42
2022/12/03 08:27:18;;;;;;;19.53;11.70;;;;;;;1.17;100.00;98147.00;6289191;28;20705;-42
2022/12/03 08:30:20;;;;;;;19.33;11.57;;;;;;;1.18;100.00;98144.38;6288179;28;20276;-41
2022/12/03 08:33:34;;;;;;;19.43;12.07;;;;;;;1.22;100.00;98142.47;6291128;28;20600;-42
2022/12/03 08:36:36;;;;;;;16.27;10.53;;;;;;;1.23;100.00;98137.22;6280303;28;20223;-42
2022/12/03 08:39:45;;;;;;;19.43;11.50;;;;;;;1.26;100.00;98137.13;6287602;28;20620;-42
2022/12/03 08:42:48;;;;;;;19.03;11.53;;;;;;;1.28;100.00;98140.53;6284828;28;20698;-42
2022/12/03 08:45:52;;;;;;;20.43;11.53;;;;;;;1.30;100.00;98140.47;6290690;28;20253;-42
2022/12/03 08:48:54;;;;;;;21.20;13.03;;;;;;;1.32;100.00;98147.28;6284013;28;20828;-43
2022/12/03 08:52:00;;;;;;;22.40;12.77;;;;;;;1.35;100.00;98146.34;6288380;28;20232;-42
2022/12/03 08:55:32;;;;;;;22.50;12.70;;;;;;;1.39;100.00;98159.19;6288070;28;20234;-43
2022/12/03 08:58:45;;;;;;;20.50;12.80;;;;;;;1.39;100.00;98143.59;6287787;28;20239;-42
2022/12/03 09:01:49;;;;;;;19.40;12.07;;;;;;;1.40;100.00;98152.22;6285199;28;20303;-42
2022/12/03 09:04:53;;;;;;;20.57;11.40;;;;;;;1.40;100.00;98160.88;6286835;28;20234;-42
2022/12/03 09:07:55;;;;;;;21.77;11.47;;;;;;;1.44;100.00;98157.25;6288887;28;20230;-43
2022/12/03 09:10:57;;;;;;;21.67;12.07;;;;;;;1.43;100.00;98167.72;6291299;28;20232;-43
2022/12/03 09:14:00;;;;;;;21.87;12.27;;;;;;;1.48;100.00;98160.63;6288021;28;20234;-43
2022/12/03 09:17:02;;;;;;;21.87;13.27;;;;;;;1.46;100.00;98155.47;6287405;28;20230;-42
2022/12/03 09:20:05;;;;;;;22.10;12.70;;;;;;;1.45;100.00;98158.97;6291469;28;20229;-42
2022/12/03 09:23:07;;;;;;;21.00;12.73;;;;;;;1.48;100.00;98153.66;6292740;28;20261;-45
2022/12/03 09:26:10;;;;;;;23.70;13.00;;;;;;;1.50;100.00;98150.16;6292977;28;20306;-43
2022/12/03 09:29:12;;;;;;;20.60;11.97;;;;;;;1.51;100.00;98146.63;6295608;28;20256;-43
2022/12/03 09:32:14;;;;;;;23.20;12.43;;;;;;;1.49;100.00;98146.72;6292214;28;20669;-43
2022/12/03 09:35:19;;;;;;;21.70;12.93;;;;;;;1.50;100.00;98145.78;6294574;28;20226;-42
2022/12/03 09:38:36;;;;;;;23.67;13.50;;;;;;;1.52;100.00;98145.72;6261666;28;20646;-44
2022/12/03 09:41:45;;;;;;;22.40;13.40;;;;;;;1.58;100.00;98140.31;6289281;28;20711;-43
2022/12/03 09:44:47;;;;;;;23.40;13.70;;;;;;;1.58;100.00;98137.72;6293369;28;20321;-43
2022/12/03 09:47:49;;;;;;;21.03;13.53;;;;;;;1.58;100.00;98142.91;6290997;28;20253;-43
2022/12/03 09:50:51;;;;;;;21.93;12.67;;;;;;;1.56;100.00;98129.13;6291861;28;20383;-42
2022/12/03 09:53:54;;;;;;;22.03;13.07;;;;;;;1.66;100.00;98128.72;6293524;28;20751;-44
2022/12/03 09:56:59;;;;;;;25.30;14.10;;;;;;;1.71;100.00;98133.72;6291818;28;20746;-44
2022/12/03 10:00:01;;;;;;;22.43;12.87;;;;;;;1.76;100.00;98126.63;6292098;28;20563;-43
2022/12/03 10:03:16;;;;;;;21.33;13.33;;;;;;;1.80;100.00;98126.41;6289305;28;20257;-42
2022/12/03 10:06:21;;;;;;;21.07;12.80;;;;;;;1.87;100.00;98134.03;6274821;28;20615;-43
2022/12/03 10:09:27;;;;;;;20.40;11.80;;;;;;;1.79;100.00;98131.72;6292631;28;20239;-44
2022/12/03 10:12:29;;;;;;;20.90;12.70;;;;;;;1.80;100.00;98125.56;6292700;28;20541;-43
2022/12/03 10:15:31;;;;;;;23.20;13.50;;;;;;;1.86;100.00;98122.75;6290123;28;20501;-43
2022/12/03 10:18:34;;;;;;;22.07;12.83;;;;;;;1.89;100.00;98132.22;6292232;28;20733;-43
2022/12/03 10:21:42;;;;;;;22.43;12.80;;;;;;;1.87;100.00;98134.88;6297413;28;20311;-43
2022/12/03 10:24:45;;;;;;;21.53;13.27;;;;;;;1.89;100.00;98129.59;6298470;28;20252;-43
2022/12/03 10:28:00;;;;;;;22.10;14.00;;;;;;;1.91;100.00;98128.63;6294048;28;20227;-43
2022/12/03 10:31:06;;;;;;;21.70;13.53;;;;;;;1.96;100.00;98113.69;6281670;28;20311;-42
2022/12/03 10:34:10;;;;;;;20.03;12.87;;;;;;;1.98;100.00;98104.06;6291718;28;20254;-43
2022/12/03 10:37:16;;;;;;;22.97;13.20;;;;;;;1.98;100.00;98101.47;6290613;28;20281;-43
2022/12/03 10:40:23;;;;;;;21.57;13.07;;;;;;;2.00;100.00;98099.63;6291907;28;20233;-43
2022/12/03 10:43:27;;;;;;;21.03;13.13;;;;;;;2.01;100.00;98096.13;6284569;28;20243;-43
2022/12/03 10:46:32;;;;;;;19.23;13.57;;;;;;;2.06;100.00;98091.59;6289812;28;20623;-44
2022/12/03 10:49:35;;;;;;;21.30;13.57;;;;;;;2.07;100.00;98093.28;6290785;28;20231;-43
2022/12/03 10:52:38;;;;;;;23.00;13.00;;;;;;;2.06;100.00;98099.41;6291930;28;20739;-43
2022/12/03 10:55:45;;;;;;;26.63;14.17;;;;;;;2.06;100.00;98093.34;6291043;28;20263;-43
2022/12/03 10:58:54;;;;;;;25.90;14.70;;;;;;;2.08;100.00;98095.00;6289672;28;20231;-43
2022/12/03 11:01:56;;;;;;;22.70;13.27;;;;;;;2.03;100.00;98098.66;6291078;28;20316;-44
2022/12/03 11:04:59;;;;;;;23.03;14.97;;;;;;;2.02;100.00;98083.97;6288968;28;20589;-44
2022/12/03 11:08:02;;;;;;;19.13;12.80;;;;;;;2.00;100.00;98093.56;6288131;28;20232;-43
2022/12/03 11:11:07;;;;;;;22.73;13.60;;;;;;;1.99;100.00;98090.16;6290069;28;20232;-43
2022/12/03 11:14:10;;;;;;;23.10;13.70;;;;;;;2.00;100.00;98094.41;6277719;28;20241;-44
2022/12/03 11:17:12;;;;;;;19.90;12.97;;;;;;;2.01;100.00;98079.66;6288015;28;20376;-43
2022/12/03 11:20:23;;;;;;;21.50;13.40;;;;;;;2.04;100.00;98084.75;6285835;28;20255;-43
2022/12/03 11:23:43;;;;;;;22.00;13.57;;;;;;;2.06;100.00;98083.78;6293334;28;20229;-42
2022/12/03 11:26:45;;;;;;;24.50;14.57;;;;;;;2.05;100.00;98081.25;6281584;28;20292;-43
2022/12/03 11:29:51;;;;;;;24.73;14.57;;;;;;;2.00;100.00;98073.59;6291441;28;20238;-43
2022/12/03 11:32:56;;;;;;;25.77;14.23;;;;;;;2.02;100.00;98082.19;6265519;28;20262;-43
2022/12/03 11:36:04;;;;;;;22.43;14.70;;;;;;;2.03;100.00;98070.88;6282411;28;20299;-43
2022/12/03 11:39:07;;;;;;;22.90;13.63;;;;;;;2.04;100.00;98072.59;6284646;28;20230;-43
2022/12/03 11:42:24;;;;;;;24.73;14.60;;;;;;;2.05;100.00;98066.47;6284753;28;20236;-43
2022/12/03 11:45:35;;;;;;;22.33;13.90;;;;;;;2.05;100.00;98061.25;6290271;28;20231;-43
2022/12/03 11:48:44;;;;;;;24.27;14.23;;;;;;;2.08;100.00;98055.94;6284958;28;20776;-44
2022/12/03 11:51:46;;;;;;;20.93;13.07;;;;;;;2.07;100.00;98054.25;6288677;28;20250;-43
2022/12/03 11:54:52;;;;;;;20.03;12.67;;;;;;;2.08;100.00;98053.34;6290545;28;20283;-43
2022/12/03 11:58:00;;;;;;;21.30;12.30;;;;;;;2.12;100.00;98046.25;6285903;28;20255;-42
2022/12/03 12:01:06;;;;;;;23.33;13.40;;;;;;;2.13;100.00;98040.13;6289402;28;20243;-43
2022/12/03 12:04:29;;;;;;;20.17;12.17;;;;;;;2.16;100.00;98053.88;6289182;28;20313;-44
2022/12/03 12:07:35;;;;;;;20.10;13.00;;;;;;;2.18;100.00;98046.00;6285451;28;20321;-43
2022/12/03 12:10:46;;;;;;;19.07;12.07;;;;;;;2.23;100.00;98041.44;6284999;28;20318;-43
2022/12/03 12:13:51;;;;;;;20.87;12.20;;;;;;;2.28;100.00;98047.31;6291177;28;20346;-43
2022/12/03 12:16:54;;;;;;;19.90;12.27;;;;;;;2.29;100.00;98036.00;6287427;28;20240;-43
2022/12/03 12:20:33;;;;;;;17.70;12.10;;;;;;;2.26;99.45;98043.94;6270423;28;20215;-43
2022/12/03 12:23:35;;;;;;;17.47;11.87;;;;;;;2.26;99.69;98049.13;6287815;28;20228;-43
2022/12/03 12:26:37;;;;;;;18.60;11.23;;;;;;;2.23;99.14;98046.66;6292869;28;20230;-43
2022/12/03 12:29:41;;;;;;;16.57;10.80;;;;;;;2.21;99.52;98040.66;6287462;28;20380;-44
2022/12/03 12:32:49;;;;;;;16.60;11.07;;;;;;;2.22;99.41;98048.41;6285220;28;20243;-43
2022/12/03 12:35:52;;;;;;;18.97;12.30;;;;;;;2.25;99.40;98042.22;6284742;28;20229;-43
2022/12/03 12:38:55;;;;;;;18.07;11.63;;;;;;;2.25;99.42;98042.22;6288288;28;20697;-43
2022/12/03 12:42:07;;;;;;;18.33;11.07;;;;;;;2.27;99.09;98039.56;6294465;28;20753;-43
2022/12/03 12:45:23;;;;;;;15.70;11.27;;;;;;;2.24;99.03;98030.13;6270138;28;20226;-43
2022/12/03 12:48:29;;;;;;;18.23;11.27;;;;;;;2.26;99.37;98028.31;6278626;28;20694;-43
2022/12/03 12:51:32;;;;;;;17.00;11.43;;;;;;;2.26;99.53;98046.53;6284837;28;20440;-43
2022/12/03 12:54:36;;;;;;;17.23;12.03;;;;;;;2.28;99.70;98038.66;6292133;28;20248;-43
2022/12/03 12:57:38;;;;;;;20.23;12.63;;;;;;;2.27;99.99;98040.41;6287025;28;20261;-44
2022/12/03 13:00:41;;;;;;;16.90;10.73;;;;;;;2.26;99.41;98037.88;6292764;28;20241;-43
2022/12/03 13:03:43;;;;;;;17.80;11.83;;;;;;;2.26;99.42;98032.66;6284525;28;20381;-43
2022/12/03 13:06:52;;;;;;;17.60;11.37;;;;;;;2.25;99.51;98031.81;6293564;28;20602;-43
2022/12/03 13:09:55;;;;;;;16.77;11.17;;;;;;;2.22;99.30;98026.72;6283533;28;20708;-43
2022/12/03 13:13:11;;;;;;;17.03;11.47;;;;;;;2.26;99.25;98030.06;6291441;28;20294;-43
2022/12/03 13:16:22;;;;;;;18.40;10.47;;;;;;;2.29;99.10;98027.34;6292828;28;20235;-43
2022/12/03 13:19:30;;;;;;;18.67;11.17;;;;;;;2.29;99.18;98030.78;6290233;28;20237;-43
2022/12/03 13:22:32;;;;;;;17.80;12.43;;;;;;;2.29;98.92;98030.78;6284044;28;20268;-43
2022/12/03 13:25:36;;;;;;;18.60;11.50;;;;;;;2.28;98.90;98030.84;6288506;28;20222;-43
2022/12/03 13:29:24;;;;;;;18.10;12.63;;;;;;;2.26;98.99;98035.25;6290902;28;20281;-44
2022/12/03 13:32:32;;;;;;;16.50;11.23;;;;;;;2.27;98.97;98026.56;6294067;28;20237;-43
2022/12/03 13:35:35;;;;;;;17.70;10.87;;;;;;;2.27;98.67;98026.56;6295929;28;20446;-43
2022/12/03 13:38:37;;;;;;;16.40;11.33;;;;;;;2.26;98.57;98030.91;6293262;28;20598;-43
2022/12/03 13:45:02;;;;;;;18.87;11.50;;;;;;;2.26;98.61;98028.31;6287652;28;20232;-43
2022/12/03 13:48:33;;;;;;;19.00;12.47;;;;;;;2.28;98.70;98028.25;6294757;28;20220;-43
2022/12/03 13:51:35;;;;;;;16.40;12.23;;;;;;;2.25;98.70;98038.78;6284746;28;20232;-43
2022/12/03 13:54:38;;;;;;;18.87;12.30;;;;;;;2.25;98.72;98034.41;6294695;28;20238;-43
2022/12/03 13:57:40;;;;;;;20.47;12.33;;;;;;;2.24;99.26;98035.31;6288207;28;20727;-43
2022/12/03 14:00:43;;;;;;;21.77;13.53;;;;;;;2.19;98.57;98038.13;6292152;28;20233;-43
2022/12/03 14:03:45;;;;;;;19.60;14.20;;;;;;;2.18;98.89;98028.63;6290007;28;20601;-43
2022/12/03 14:06:47;;;;;;;22.77;13.97;;;;;;;2.17;98.93;98042.56;6292712;28;20916;-43
2022/12/03 14:09:49;;;;;;;29.60;17.97;;;;;;;2.13;99.65;98047.94;6277314;28;20234;-43
2022/12/03 14:12:52;;;;;;;27.83;16.80;;;;;;;2.10;99.51;98058.47;6292797;28;20314;-43
2022/12/03 14:15:54;;;;;;;28.77;16.40;;;;;;;2.11;99.60;98066.22;6288109;28;20225;-43
2022/12/03 14:18:56;;;;;;;26.30;16.17;;;;;;;2.10;100.00;98067.13;6290245;28;20214;-43
2022/12/03 14:21:59;;;;;;;29.47;17.83;;;;;;;2.07;100.00;98064.66;6294587;28;20284;-43
2022/12/03 14:25:01;;;;;;;29.93;18.33;;;;;;;2.07;100.00;98067.25;6291973;28;20323;-44
2022/12/03 14:28:07;;;;;;;34.60;18.30;;;;;;;2.06;100.00;98062.13;6292887;28;20292;-43
2022/12/03 14:31:09;;;;;;;33.83;19.13;;;;;;;2.04;100.00;98069.97;6291108;28;20366;-42
2022/12/03 14:34:12;;;;;;;30.47;17.77;;;;;;;2.02;100.00;98063.97;6275550;28;20694;-43
2022/12/03 14:37:14;;;;;;;31.70;19.00;;;;;;;2.03;100.00;98063.06;6289979;28;20265;-43